sensor_id;sensor_type;location;lat;lon;timestamp;P1;durP1;ratioP1;P2;durP2;ratioP2
18076;SDS011;9165;45.714;11.362;2023-12-14T00:00:45;25.60;;;17.70;;
18076;SDS011;9165;45.714;11.362;2023-12-14T00:03:11;31.63;;;18.83;;
18076;SDS011;9165;45.714;11.362;2023-12-14T00:05:38;37.73;;;20.17;;
18076;SDS011;9165;45.714;11.362;2023-12-14T00:08:05;31.53;;;19.60;;
18076;SDS011;9165;45.714;11.362;2023-12-14T00:10:32;29.17;;;17.77;;
18076;SDS011;9165;45.714;11.362;2023-12-14T00:12:59;33.90;;;18.53;;
18076;SDS011;9165;45.714;11.362;2023-12-14T00:15:26;27.87;;;17.37;;
18076;SDS011;9165;45.714;11.362;2023-12-14T00:17:52;23.80;;;15.17;;
18076;SDS011;9165;45.714;11.362;2023-12-14T00:20:19;18.73;;;13.10;;
18076;SDS011;9165;45.714;11.362;2023-12-14T00:22:45;20.27;;;11.30;;
18076;SDS011;9165;45.714;11.362;2023-12-14T00:25:13;19.20;;;11.63;;
18076;SDS011;9165;45.714;11.362;2023-12-14T00:27:40;18.20;;;11.67;;
18076;SDS011;9165;45.714;11.362;2023-12-14T00:30:07;21.77;;;13.03;;
18076;SDS011;9165;45.714;11.362;2023-12-14T00:32:34;18.93;;;12.50;;
18076;SDS011;9165;45.714;11.362;2023-12-14T00:35:00;20.53;;;13.80;;
18076;SDS011;9165;45.714;11.362;2023-12-14T00:37:27;20.70;;;13.87;;
18076;SDS011;9165;45.714;11.362;2023-12-14T00:39:54;20.20;;;14.23;;
18076;SDS011;9165;45.714;11.362;2023-12-14T00:42:21;18.47;;;13.40;;
18076;SDS011;9165;45.714;11.362;2023-12-14T00:44:48;20.97;;;14.70;;
18076;SDS011;9165;45.714;11.362;2023-12-14T00:47:15;25.53;;;14.70;;
18076;SDS011;9165;45.714;11.362;2023-12-14T00:49:41;21.70;;;13.77;;
18076;SDS011;9165;45.714;11.362;2023-12-14T00:52:08;22.00;;;15.17;;
18076;SDS011;9165;45.714;11.362;2023-12-14T00:54:34;20.50;;;13.37;;
18076;SDS011;9165;45.714;11.362;2023-12-14T00:57:01;27.57;;;14.73;;
18076;SDS011;9165;45.714;11.362;2023-12-14T00:59:30;20.93;;;14.30;;
18076;SDS011;9165;45.714;11.362;2023-12-14T01:01:56;18.70;;;12.77;;
18076;SDS011;9165;45.714;11.362;2023-12-14T01:04:23;20.33;;;12.97;;
18076;SDS011;9165;45.714;11.362;2023-12-14T01:06:49;17.77;;;12.93;;
18076;SDS011;9165;45.714;11.362;2023-12-14T01:09:16;19.40;;;12.70;;
18076;SDS011;9165;45.714;11.362;2023-12-14T01:11:42;20.43;;;13.80;;
18076;SDS011;9165;45.714;11.362;2023-12-14T01:14:09;18.27;;;12.47;;
18076;SDS011;9165;45.714;11.362;2023-12-14T01:16:37;19.13;;;12.13;;
18076;SDS011;9165;45.714;11.362;2023-12-14T01:19:04;18.30;;;12.75;;
18076;SDS011;9165;45.714;11.362;2023-12-14T01:21:31;19.63;;;12.20;;
18076;SDS011;9165;45.714;11.362;2023-12-14T01:23:57;19.23;;;13.03;;
18076;SDS011;9165;45.714;11.362;2023-12-14T01:26:25;19.67;;;11.43;;
18076;SDS011;9165;45.714;11.362;2023-12-14T01:28:52;17.00;;;10.57;;
18076;SDS011;9165;45.714;11.362;2023-12-14T01:31:18;11.97;;;9.03;;
18076;SDS011;9165;45.714;11.362;2023-12-14T01:33:49;11.57;;;8.03;;
18076;SDS011;9165;45.714;11.362;2023-12-14T01:36:19;13.67;;;8.53;;
18076;SDS011;9165;45.714;11.362;2023-12-14T01:38:46;13.13;;;8.90;;
18076;SDS011;9165;45.714;11.362;2023-12-14T01:41:13;15.53;;;8.47;;
18076;SDS011;9165;45.714;11.362;2023-12-14T01:43:39;11.27;;;7.67;;
18076;SDS011;9165;45.714;11.362;2023-12-14T01:46:06;10.23;;;6.93;;
18076;SDS011;9165;45.714;11.362;2023-12-14T01:48:32;12.85;;;7.85;;
18076;SDS011;9165;45.714;11.362;2023-12-14T01:51:00;8.90;;;6.83;;
18076;SDS011;9165;45.714;11.362;2023-12-14T01:53:27;11.30;;;7.57;;
18076;SDS011;9165;45.714;11.362;2023-12-14T01:55:54;11.63;;;7.17;;
18076;SDS011;9165;45.714;11.362;2023-12-14T01:58:20;10.97;;;7.03;;
18076;SDS011;9165;45.714;11.362;2023-12-14T02:00:49;9.13;;;6.27;;
18076;SDS011;9165;45.714;11.362;2023-12-14T02:03:14;13.47;;;6.27;;
18076;SDS011;9165;45.714;11.362;2023-12-14T02:05:41;7.37;;;5.60;;
18076;SDS011;9165;45.714;11.362;2023-12-14T02:08:09;7.17;;;5.33;;
18076;SDS011;9165;45.714;11.362;2023-12-14T02:10:35;9.13;;;6.10;;
18076;SDS011;9165;45.714;11.362;2023-12-14T02:13:02;6.83;;;5.97;;
18076;SDS011;9165;45.714;11.362;2023-12-14T02:15:29;10.93;;;6.70;;
18076;SDS011;9165;45.714;11.362;2023-12-14T02:17:55;8.40;;;6.13;;
18076;SDS011;9165;45.714;11.362;2023-12-14T02:20:22;10.00;;;6.87;;
18076;SDS011;9165;45.714;11.362;2023-12-14T02:22:50;7.37;;;6.10;;
18076;SDS011;9165;45.714;11.362;2023-12-14T02:25:17;13.10;;;6.23;;
18076;SDS011;9165;45.714;11.362;2023-12-14T02:27:43;9.97;;;6.90;;
18076;SDS011;9165;45.714;11.362;2023-12-14T02:30:10;8.73;;;6.13;;
18076;SDS011;9165;45.714;11.362;2023-12-14T02:32:37;8.87;;;5.30;;
18076;SDS011;9165;45.714;11.362;2023-12-14T02:37:31;11.80;;;5.80;;
18076;SDS011;9165;45.714;11.362;2023-12-14T02:39:59;7.60;;;5.53;;
18076;SDS011;9165;45.714;11.362;2023-12-14T02:42:25;6.80;;;5.10;;
18076;SDS011;9165;45.714;11.362;2023-12-14T02:44:52;8.50;;;5.77;;
18076;SDS011;9165;45.714;11.362;2023-12-14T02:47:19;10.03;;;6.00;;
18076;SDS011;9165;45.714;11.362;2023-12-14T02:49:46;10.67;;;6.47;;
18076;SDS011;9165;45.714;11.362;2023-12-14T02:52:12;9.90;;;6.13;;
18076;SDS011;9165;45.714;11.362;2023-12-14T02:54:39;7.03;;;5.00;;
18076;SDS011;9165;45.714;11.362;2023-12-14T02:57:07;6.60;;;4.73;;
18076;SDS011;9165;45.714;11.362;2023-12-14T02:59:34;7.87;;;4.23;;
18076;SDS011;9165;45.714;11.362;2023-12-14T03:02:00;4.67;;;3.73;;
18076;SDS011;9165;45.714;11.362;2023-12-14T03:04:27;6.87;;;3.90;;
18076;SDS011;9165;45.714;11.362;2023-12-14T03:06:53;6.50;;;3.43;;
18076;SDS011;9165;45.714;11.362;2023-12-14T03:09:21;6.00;;;3.70;;
18076;SDS011;9165;45.714;11.362;2023-12-14T03:11:48;6.03;;;3.03;;
18076;SDS011;9165;45.714;11.362;2023-12-14T03:14:16;6.20;;;3.07;;
18076;SDS011;9165;45.714;11.362;2023-12-14T03:16:42;3.70;;;2.87;;
18076;SDS011;9165;45.714;11.362;2023-12-14T03:19:09;6.43;;;3.30;;
18076;SDS011;9165;45.714;11.362;2023-12-14T03:21:35;8.23;;;3.57;;
18076;SDS011;9165;45.714;11.362;2023-12-14T03:24:02;4.63;;;3.00;;
18076;SDS011;9165;45.714;11.362;2023-12-14T03:26:28;4.23;;;3.20;;
18076;SDS011;9165;45.714;11.362;2023-12-14T03:28:55;3.53;;;3.00;;
18076;SDS011;9165;45.714;11.362;2023-12-14T03:31:23;2.63;;;2.20;;
18076;SDS011;9165;45.714;11.362;2023-12-14T03:33:48;4.80;;;2.77;;
18076;SDS011;9165;45.714;11.362;2023-12-14T03:36:15;2.57;;;2.37;;
18076;SDS011;9165;45.714;11.362;2023-12-14T03:38:41;3.57;;;2.80;;
18076;SDS011;9165;45.714;11.362;2023-12-14T03:41:08;4.37;;;3.17;;
18076;SDS011;9165;45.714;11.362;2023-12-14T03:43:34;2.50;;;2.07;;
18076;SDS011;9165;45.714;11.362;2023-12-14T03:46:01;2.20;;;2.00;;
18076;SDS011;9165;45.714;11.362;2023-12-14T03:48:29;2.50;;;2.13;;
18076;SDS011;9165;45.714;11.362;2023-12-14T03:50:55;3.60;;;2.27;;
18076;SDS011;9165;45.714;11.362;2023-12-14T03:53:22;2.80;;;2.10;;
18076;SDS011;9165;45.714;11.362;2023-12-14T03:55:48;3.40;;;2.37;;
18076;SDS011;9165;45.714;11.362;2023-12-14T03:58:15;2.80;;;2.07;;
18076;SDS011;9165;45.714;11.362;2023-12-14T04:00:41;3.37;;;2.10;;
18076;SDS011;9165;45.714;11.362;2023-12-14T04:03:08;2.97;;;2.13;;
18076;SDS011;9165;45.714;11.362;2023-12-14T04:05:36;3.13;;;2.17;;
18076;SDS011;9165;45.714;11.362;2023-12-14T04:08:04;4.13;;;2.10;;
18076;SDS011;9165;45.714;11.362;2023-12-14T04:10:30;2.07;;;1.77;;
18076;SDS011;9165;45.714;11.362;2023-12-14T04:12:57;3.87;;;2.40;;
18076;SDS011;9165;45.714;11.362;2023-12-14T04:15:23;2.33;;;1.83;;
18076;SDS011;9165;45.714;11.362;2023-12-14T04:17:50;3.37;;;2.33;;
18076;SDS011;9165;45.714;11.362;2023-12-14T04:20:16;2.23;;;2.03;;
18076;SDS011;9165;45.714;11.362;2023-12-14T04:22:44;3.03;;;2.20;;
18076;SDS011;9165;45.714;11.362;2023-12-14T04:25:11;2.63;;;1.80;;
18076;SDS011;9165;45.714;11.362;2023-12-14T04:27:37;1.90;;;1.80;;
18076;SDS011;9165;45.714;11.362;2023-12-14T04:30:04;1.83;;;1.63;;
18076;SDS011;9165;45.714;11.362;2023-12-14T04:32:35;3.30;;;1.90;;
18076;SDS011;9165;45.714;11.362;2023-12-14T04:35:02;1.80;;;1.53;;
18076;SDS011;9165;45.714;11.362;2023-12-14T04:37:29;2.00;;;1.60;;
18076;SDS011;9165;45.714;11.362;2023-12-14T04:39:57;4.47;;;1.77;;
18076;SDS011;9165;45.714;11.362;2023-12-14T04:42:24;2.67;;;1.90;;
18076;SDS011;9165;45.714;11.362;2023-12-14T04:44:50;2.33;;;2.10;;
18076;SDS011;9165;45.714;11.362;2023-12-14T04:47:17;5.60;;;2.50;;
18076;SDS011;9165;45.714;11.362;2023-12-14T04:49:43;2.13;;;1.83;;
18076;SDS011;9165;45.714;11.362;2023-12-14T04:52:10;2.73;;;1.67;;
18076;SDS011;9165;45.714;11.362;2023-12-14T04:54:36;2.23;;;1.70;;
18076;SDS011;9165;45.714;11.362;2023-12-14T04:57:06;3.30;;;1.67;;
18076;SDS011;9165;45.714;11.362;2023-12-14T04:59:33;2.60;;;1.70;;
18076;SDS011;9165;45.714;11.362;2023-12-14T05:02:00;1.77;;;1.67;;
18076;SDS011;9165;45.714;11.362;2023-12-14T05:04:26;3.30;;;2.40;;
18076;SDS011;9165;45.714;11.362;2023-12-14T05:06:53;3.70;;;2.37;;
18076;SDS011;9165;45.714;11.362;2023-12-14T05:09:19;2.20;;;1.87;;
18076;SDS011;9165;45.714;11.362;2023-12-14T05:11:46;2.17;;;1.67;;
18076;SDS011;9165;45.714;11.362;2023-12-14T05:14:14;5.23;;;1.80;;
18076;SDS011;9165;45.714;11.362;2023-12-14T05:16:40;2.67;;;1.90;;
18076;SDS011;9165;45.714;11.362;2023-12-14T05:19:07;2.20;;;1.50;;
18076;SDS011;9165;45.714;11.362;2023-12-14T05:21:33;2.80;;;1.70;;
18076;SDS011;9165;45.714;11.362;2023-12-14T05:24:00;2.43;;;1.87;;
18076;SDS011;9165;45.714;11.362;2023-12-14T05:26:26;1.93;;;1.83;;
18076;SDS011;9165;45.714;11.362;2023-12-14T05:28:53;5.47;;;2.23;;
18076;SDS011;9165;45.714;11.362;2023-12-14T05:31:21;2.10;;;1.50;;
18076;SDS011;9165;45.714;11.362;2023-12-14T05:33:47;8.63;;;1.93;;
18076;SDS011;9165;45.714;11.362;2023-12-14T05:36:14;2.00;;;1.80;;
18076;SDS011;9165;45.714;11.362;2023-12-14T05:38:40;2.87;;;1.73;;
18076;SDS011;9165;45.714;11.362;2023-12-14T05:41:07;2.07;;;1.83;;
18076;SDS011;9165;45.714;11.362;2023-12-14T05:43:35;9.13;;;1.90;;
18076;SDS011;9165;45.714;11.362;2023-12-14T05:46:01;1.90;;;1.40;;
18076;SDS011;9165;45.714;11.362;2023-12-14T05:48:30;1.50;;;1.27;;
18076;SDS011;9165;45.714;11.362;2023-12-14T05:50:56;2.60;;;1.80;;
18076;SDS011;9165;45.714;11.362;2023-12-14T05:53:23;1.60;;;1.50;;
18076;SDS011;9165;45.714;11.362;2023-12-14T05:55:50;2.07;;;1.70;;
18076;SDS011;9165;45.714;11.362;2023-12-14T05:58:16;1.63;;;1.53;;
18076;SDS011;9165;45.714;11.362;2023-12-14T06:00:43;2.17;;;1.43;;
18076;SDS011;9165;45.714;11.362;2023-12-14T06:03:10;1.50;;;1.37;;
18076;SDS011;9165;45.714;11.362;2023-12-14T06:05:38;3.33;;;1.50;;
18076;SDS011;9165;45.714;11.362;2023-12-14T06:08:04;2.33;;;1.60;;
18076;SDS011;9165;45.714;11.362;2023-12-14T06:10:32;2.13;;;1.83;;
18076;SDS011;9165;45.714;11.362;2023-12-14T06:12:58;6.20;;;1.67;;
18076;SDS011;9165;45.714;11.362;2023-12-14T06:15:25;1.47;;;1.37;;
18076;SDS011;9165;45.714;11.362;2023-12-14T06:17:51;1.93;;;1.70;;
18076;SDS011;9165;45.714;11.362;2023-12-14T06:20:18;2.10;;;1.80;;
18076;SDS011;9165;45.714;11.362;2023-12-14T06:22:46;2.43;;;1.83;;
18076;SDS011;9165;45.714;11.362;2023-12-14T06:25:12;5.00;;;2.30;;
18076;SDS011;9165;45.714;11.362;2023-12-14T06:27:39;3.27;;;2.27;;
18076;SDS011;9165;45.714;11.362;2023-12-14T06:30:06;2.93;;;1.80;;
18076;SDS011;9165;45.714;11.362;2023-12-14T06:32:34;2.97;;;2.23;;
18076;SDS011;9165;45.714;11.362;2023-12-14T06:35:01;2.27;;;2.00;;
18076;SDS011;9165;45.714;11.362;2023-12-14T06:37:27;3.57;;;2.20;;
18076;SDS011;9165;45.714;11.362;2023-12-14T06:39:56;3.10;;;1.80;;
18076;SDS011;9165;45.714;11.362;2023-12-14T06:42:22;2.13;;;1.90;;
18076;SDS011;9165;45.714;11.362;2023-12-14T06:44:49;2.10;;;1.90;;
18076;SDS011;9165;45.714;11.362;2023-12-14T06:47:15;1.73;;;1.63;;
18076;SDS011;9165;45.714;11.362;2023-12-14T06:49:42;2.53;;;1.63;;
18076;SDS011;9165;45.714;11.362;2023-12-14T06:52:08;4.47;;;1.83;;
18076;SDS011;9165;45.714;11.362;2023-12-14T06:54:35;1.97;;;1.37;;
18076;SDS011;9165;45.714;11.362;2023-12-14T06:57:03;1.90;;;1.70;;
18076;SDS011;9165;45.714;11.362;2023-12-14T06:59:30;2.40;;;1.80;;
18076;SDS011;9165;45.714;11.362;2023-12-14T07:01:56;2.17;;;1.70;;
18076;SDS011;9165;45.714;11.362;2023-12-14T07:04:23;2.63;;;1.87;;
18076;SDS011;9165;45.714;11.362;2023-12-14T07:06:50;3.40;;;2.40;;
18076;SDS011;9165;45.714;11.362;2023-12-14T07:09:16;3.37;;;2.90;;
18076;SDS011;9165;45.714;11.362;2023-12-14T07:11:43;3.30;;;3.00;;
18076;SDS011;9165;45.714;11.362;2023-12-14T07:14:11;2.80;;;2.20;;
18076;SDS011;9165;45.714;11.362;2023-12-14T07:16:38;3.43;;;2.07;;
18076;SDS011;9165;45.714;11.362;2023-12-14T07:19:04;2.47;;;1.93;;
18076;SDS011;9165;45.714;11.362;2023-12-14T07:21:31;2.73;;;2.10;;
18076;SDS011;9165;45.714;11.362;2023-12-14T07:23:57;2.47;;;1.97;;
18076;SDS011;9165;45.714;11.362;2023-12-14T07:26:24;5.87;;;3.03;;
18076;SDS011;9165;45.714;11.362;2023-12-14T07:28:52;3.97;;;2.90;;
18076;SDS011;9165;45.714;11.362;2023-12-14T07:31:21;2.87;;;2.50;;
18076;SDS011;9165;45.714;11.362;2023-12-14T07:33:47;6.90;;;2.90;;
18076;SDS011;9165;45.714;11.362;2023-12-14T07:36:14;4.50;;;2.70;;
18076;SDS011;9165;45.714;11.362;2023-12-14T07:38:40;4.60;;;2.60;;
18076;SDS011;9165;45.714;11.362;2023-12-14T07:41:07;4.00;;;2.87;;
18076;SDS011;9165;45.714;11.362;2023-12-14T07:43:33;4.33;;;2.73;;
18076;SDS011;9165;45.714;11.362;2023-12-14T07:46:00;3.10;;;2.80;;
18076;SDS011;9165;45.714;11.362;2023-12-14T07:48:28;3.87;;;2.83;;
18076;SDS011;9165;45.714;11.362;2023-12-14T07:50:54;2.97;;;2.47;;
18076;SDS011;9165;45.714;11.362;2023-12-14T07:53:21;3.23;;;2.40;;
18076;SDS011;9165;45.714;11.362;2023-12-14T07:55:48;5.07;;;2.40;;
18076;SDS011;9165;45.714;11.362;2023-12-14T07:58:14;5.27;;;3.67;;
18076;SDS011;9165;45.714;11.362;2023-12-14T08:00:41;3.73;;;3.00;;
18076;SDS011;9165;45.714;11.362;2023-12-14T08:03:07;3.83;;;2.90;;
18076;SDS011;9165;45.714;11.362;2023-12-14T08:05:35;3.97;;;2.70;;
18076;SDS011;9165;45.714;11.362;2023-12-14T08:08:02;3.53;;;2.47;;
18076;SDS011;9165;45.714;11.362;2023-12-14T08:10:28;4.60;;;3.27;;
18076;SDS011;9165;45.714;11.362;2023-12-14T08:12:55;3.80;;;2.47;;
18076;SDS011;9165;45.714;11.362;2023-12-14T08:15:21;3.50;;;2.47;;
18076;SDS011;9165;45.714;11.362;2023-12-14T08:17:48;2.73;;;2.20;;
18076;SDS011;9165;45.714;11.362;2023-12-14T08:20:15;5.10;;;3.23;;
18076;SDS011;9165;45.714;11.362;2023-12-14T08:22:43;6.67;;;2.93;;
18076;SDS011;9165;45.714;11.362;2023-12-14T08:25:11;3.43;;;2.93;;
18076;SDS011;9165;45.714;11.362;2023-12-14T08:27:37;5.23;;;4.60;;
18076;SDS011;9165;45.714;11.362;2023-12-14T08:30:04;4.57;;;3.73;;
18076;SDS011;9165;45.714;11.362;2023-12-14T08:32:31;4.63;;;2.70;;
18076;SDS011;9165;45.714;11.362;2023-12-14T08:34:58;8.00;;;3.27;;
18076;SDS011;9165;45.714;11.362;2023-12-14T08:37:25;3.37;;;2.80;;
18076;SDS011;9165;45.714;11.362;2023-12-14T08:39:53;5.17;;;2.77;;
18076;SDS011;9165;45.714;11.362;2023-12-14T08:42:20;2.83;;;2.43;;
18076;SDS011;9165;45.714;11.362;2023-12-14T08:44:47;7.23;;;3.00;;
18076;SDS011;9165;45.714;11.362;2023-12-14T08:47:13;5.10;;;2.80;;
18076;SDS011;9165;45.714;11.362;2023-12-14T08:49:40;4.70;;;2.80;;
18076;SDS011;9165;45.714;11.362;2023-12-14T08:52:06;7.20;;;3.27;;
18076;SDS011;9165;45.714;11.362;2023-12-14T08:54:34;4.53;;;3.10;;
18076;SDS011;9165;45.714;11.362;2023-12-14T08:57:01;3.73;;;2.70;;
18076;SDS011;9165;45.714;11.362;2023-12-14T08:59:28;13.63;;;3.30;;
18076;SDS011;9165;45.714;11.362;2023-12-14T09:01:55;8.03;;;3.17;;
18076;SDS011;9165;45.714;11.362;2023-12-14T09:04:21;6.90;;;3.33;;
18076;SDS011;9165;45.714;11.362;2023-12-14T09:06:48;5.37;;;3.27;;
18076;SDS011;9165;45.714;11.362;2023-12-14T09:09:14;13.23;;;3.90;;
18076;SDS011;9165;45.714;11.362;2023-12-14T09:11:41;5.13;;;3.27;;
18076;SDS011;9165;45.714;11.362;2023-12-14T09:14:09;3.70;;;2.97;;
18076;SDS011;9165;45.714;11.362;2023-12-14T09:16:36;6.53;;;3.60;;
18076;SDS011;9165;45.714;11.362;2023-12-14T09:19:03;8.20;;;2.77;;
18076;SDS011;9165;45.714;11.362;2023-12-14T09:21:29;6.87;;;2.97;;
18076;SDS011;9165;45.714;11.362;2023-12-14T09:23:56;3.80;;;2.97;;
18076;SDS011;9165;45.714;11.362;2023-12-14T09:26:22;5.03;;;3.23;;
18076;SDS011;9165;45.714;11.362;2023-12-14T09:28:49;3.43;;;2.70;;
18076;SDS011;9165;45.714;11.362;2023-12-14T09:31:16;9.63;;;3.20;;
18076;SDS011;9165;45.714;11.362;2023-12-14T09:33:44;4.87;;;3.30;;
18076;SDS011;9165;45.714;11.362;2023-12-14T09:36:10;5.90;;;4.00;;
18076;SDS011;9165;45.714;11.362;2023-12-14T09:38:37;13.17;;;3.83;;
18076;SDS011;9165;45.714;11.362;2023-12-14T09:41:04;5.53;;;3.80;;
18076;SDS011;9165;45.714;11.362;2023-12-14T09:43:32;6.47;;;3.97;;
18076;SDS011;9165;45.714;11.362;2023-12-14T09:45:59;8.33;;;3.53;;
18076;SDS011;9165;45.714;11.362;2023-12-14T09:48:27;4.80;;;3.07;;
18076;SDS011;9165;45.714;11.362;2023-12-14T09:50:54;10.73;;;4.57;;
18076;SDS011;9165;45.714;11.362;2023-12-14T09:53:21;5.93;;;4.10;;
18076;SDS011;9165;45.714;11.362;2023-12-14T09:55:48;8.47;;;4.67;;
18076;SDS011;9165;45.714;11.362;2023-12-14T09:58:14;7.67;;;4.53;;
18076;SDS011;9165;45.714;11.362;2023-12-14T10:00:41;6.87;;;5.03;;
18076;SDS011;9165;45.714;11.362;2023-12-14T10:03:18;6.53;;;5.03;;
18076;SDS011;9165;45.714;11.362;2023-12-14T10:05:46;6.90;;;4.37;;
18076;SDS011;9165;45.714;11.362;2023-12-14T10:08:13;5.47;;;4.60;;
18076;SDS011;9165;45.714;11.362;2023-12-14T10:10:40;7.17;;;5.00;;
18076;SDS011;9165;45.714;11.362;2023-12-14T10:13:06;7.33;;;4.93;;
18076;SDS011;9165;45.714;11.362;2023-12-14T10:15:40;5.57;;;4.30;;
18076;SDS011;9165;45.714;11.362;2023-12-14T10:18:06;7.43;;;4.93;;
18076;SDS011;9165;45.714;11.362;2023-12-14T10:20:33;4.30;;;3.90;;
18076;SDS011;9165;45.714;11.362;2023-12-14T10:23:00;7.63;;;4.80;;
18076;SDS011;9165;45.714;11.362;2023-12-14T10:25:27;7.23;;;5.17;;
18076;SDS011;9165;45.714;11.362;2023-12-14T10:27:54;5.53;;;3.90;;
18076;SDS011;9165;45.714;11.362;2023-12-14T10:30:20;5.97;;;3.80;;
18076;SDS011;9165;45.714;11.362;2023-12-14T10:32:47;4.20;;;3.27;;
18076;SDS011;9165;45.714;11.362;2023-12-14T10:35:14;3.63;;;3.03;;
18076;SDS011;9165;45.714;11.362;2023-12-14T10:37:41;4.23;;;3.50;;
18076;SDS011;9165;45.714;11.362;2023-12-14T10:40:10;3.60;;;3.23;;
18076;SDS011;9165;45.714;11.362;2023-12-14T10:42:36;3.37;;;3.07;;
18076;SDS011;9165;45.714;11.362;2023-12-14T10:45:05;4.80;;;4.10;;
18076;SDS011;9165;45.714;11.362;2023-12-14T10:47:32;5.00;;;3.50;;
18076;SDS011;9165;45.714;11.362;2023-12-14T10:49:59;4.57;;;4.07;;
18076;SDS011;9165;45.714;11.362;2023-12-14T10:52:26;5.87;;;3.90;;
18076;SDS011;9165;45.714;11.362;2023-12-14T10:54:54;4.83;;;3.90;;
18076;SDS011;9165;45.714;11.362;2023-12-14T10:57:24;7.23;;;3.93;;
18076;SDS011;9165;45.714;11.362;2023-12-14T10:59:55;5.33;;;4.43;;
18076;SDS011;9165;45.714;11.362;2023-12-14T11:02:23;7.10;;;3.70;;
18076;SDS011;9165;45.714;11.362;2023-12-14T11:04:56;7.27;;;3.70;;
18076;SDS011;9165;45.714;11.362;2023-12-14T11:10:09;5.00;;;3.90;;
18076;SDS011;9165;45.714;11.362;2023-12-14T11:12:38;5.13;;;3.43;;
18076;SDS011;9165;45.714;11.362;2023-12-14T11:15:17;4.60;;;3.47;;
18076;SDS011;9165;45.714;11.362;2023-12-14T11:17:43;10.47;;;3.17;;
18076;SDS011;9165;45.714;11.362;2023-12-14T11:20:23;3.53;;;2.80;;
18076;SDS011;9165;45.714;11.362;2023-12-14T11:22:50;5.03;;;4.00;;
18076;SDS011;9165;45.714;11.362;2023-12-14T11:25:17;6.40;;;3.33;;
18076;SDS011;9165;45.714;11.362;2023-12-14T11:27:45;4.10;;;3.13;;
18076;SDS011;9165;45.714;11.362;2023-12-14T11:30:12;2.90;;;2.60;;
18076;SDS011;9165;45.714;11.362;2023-12-14T11:32:39;3.67;;;2.77;;
18076;SDS011;9165;45.714;11.362;2023-12-14T11:35:05;4.80;;;3.50;;
18076;SDS011;9165;45.714;11.362;2023-12-14T11:37:33;9.57;;;5.30;;
18076;SDS011;9165;45.714;11.362;2023-12-14T11:40:01;7.83;;;5.30;;
18076;SDS011;9165;45.714;11.362;2023-12-14T11:42:30;8.03;;;5.37;;
18076;SDS011;9165;45.714;11.362;2023-12-14T11:44:59;10.00;;;5.60;;
18076;SDS011;9165;45.714;11.362;2023-12-14T11:47:25;7.00;;;5.27;;
18076;SDS011;9165;45.714;11.362;2023-12-14T11:49:52;8.97;;;6.77;;
18076;SDS011;9165;45.714;11.362;2023-12-14T11:52:18;8.77;;;5.77;;
18076;SDS011;9165;45.714;11.362;2023-12-14T11:54:45;10.37;;;7.63;;
18076;SDS011;9165;45.714;11.362;2023-12-14T11:57:11;7.23;;;4.80;;
18076;SDS011;9165;45.714;11.362;2023-12-14T11:59:38;7.47;;;4.97;;
18076;SDS011;9165;45.714;11.362;2023-12-14T12:12:34;9.80;;;5.27;;
18076;SDS011;9165;45.714;11.362;2023-12-14T12:15:02;6.53;;;5.30;;
18076;SDS011;9165;45.714;11.362;2023-12-14T12:17:28;11.40;;;6.77;;
18076;SDS011;9165;45.714;11.362;2023-12-14T12:19:57;14.13;;;7.50;;
18076;SDS011;9165;45.714;11.362;2023-12-14T12:22:23;12.57;;;7.50;;
18076;SDS011;9165;45.714;11.362;2023-12-14T12:24:50;11.87;;;7.57;;
18076;SDS011;9165;45.714;11.362;2023-12-14T12:27:16;18.77;;;6.83;;
18076;SDS011;9165;45.714;11.362;2023-12-14T12:29:44;11.03;;;6.80;;
18076;SDS011;9165;45.714;11.362;2023-12-14T12:32:11;11.27;;;7.53;;
18076;SDS011;9165;45.714;11.362;2023-12-14T12:34:37;13.77;;;6.90;;
18076;SDS011;9165;45.714;11.362;2023-12-14T12:37:04;6.60;;;5.90;;
18076;SDS011;9165;45.714;11.362;2023-12-14T12:39:33;7.33;;;6.40;;
18076;SDS011;9165;45.714;11.362;2023-12-14T12:42:02;9.07;;;5.57;;
18076;SDS011;9165;45.714;11.362;2023-12-14T12:45:11;10.00;;;6.63;;
18076;SDS011;9165;45.714;11.362;2023-12-14T12:47:37;25.60;;;14.53;;
18076;SDS011;9165;45.714;11.362;2023-12-14T12:50:24;13.93;;;9.33;;
18076;SDS011;9165;45.714;11.362;2023-12-14T12:53:26;12.43;;;7.87;;
18076;SDS011;9165;45.714;11.362;2023-12-14T12:55:53;8.40;;;6.83;;
18076;SDS011;9165;45.714;11.362;2023-12-14T12:58:20;11.67;;;8.20;;
18076;SDS011;9165;45.714;11.362;2023-12-14T13:00:48;8.83;;;7.10;;
18076;SDS011;9165;45.714;11.362;2023-12-14T13:03:14;9.73;;;6.77;;
18076;SDS011;9165;45.714;11.362;2023-12-14T13:05:41;6.90;;;6.20;;
18076;SDS011;9165;45.714;11.362;2023-12-14T13:08:08;7.57;;;5.87;;
18076;SDS011;9165;45.714;11.362;2023-12-14T13:10:36;11.60;;;6.73;;
18076;SDS011;9165;45.714;11.362;2023-12-14T13:13:04;6.77;;;5.47;;
18076;SDS011;9165;45.714;11.362;2023-12-14T13:15:31;13.23;;;6.07;;
18076;SDS011;9165;45.714;11.362;2023-12-14T13:18:00;10.00;;;6.37;;
18076;SDS011;9165;45.714;11.362;2023-12-14T13:20:27;12.77;;;7.73;;
18076;SDS011;9165;45.714;11.362;2023-12-14T13:22:55;7.43;;;6.57;;
18076;SDS011;9165;45.714;11.362;2023-12-14T13:25:21;12.67;;;8.67;;
18076;SDS011;9165;45.714;11.362;2023-12-14T13:27:51;9.80;;;7.53;;
18076;SDS011;9165;45.714;11.362;2023-12-14T13:30:17;10.60;;;7.93;;
18076;SDS011;9165;45.714;11.362;2023-12-14T13:32:46;10.83;;;8.17;;
18076;SDS011;9165;45.714;11.362;2023-12-14T13:35:14;9.67;;;7.40;;
18076;SDS011;9165;45.714;11.362;2023-12-14T13:37:40;12.73;;;7.90;;
18076;SDS011;9165;45.714;11.362;2023-12-14T13:40:07;11.23;;;8.23;;
18076;SDS011;9165;45.714;11.362;2023-12-14T13:42:35;11.93;;;8.97;;
18076;SDS011;9165;45.714;11.362;2023-12-14T13:45:01;11.60;;;8.87;;
18076;SDS011;9165;45.714;11.362;2023-12-14T13:47:28;15.17;;;9.67;;
18076;SDS011;9165;45.714;11.362;2023-12-14T13:49:55;13.83;;;8.87;;
18076;SDS011;9165;45.714;11.362;2023-12-14T13:52:23;14.67;;;10.27;;
18076;SDS011;9165;45.714;11.362;2023-12-14T13:54:49;15.67;;;10.40;;
18076;SDS011;9165;45.714;11.362;2023-12-14T13:57:16;12.07;;;9.73;;
18076;SDS011;9165;45.714;11.362;2023-12-14T13:59:43;13.10;;;9.07;;
18076;SDS011;9165;45.714;11.362;2023-12-14T14:02:10;13.10;;;9.90;;
18076;SDS011;9165;45.714;11.362;2023-12-14T14:04:36;17.57;;;11.77;;
18076;SDS011;9165;45.714;11.362;2023-12-14T14:07:03;18.53;;;10.80;;
18076;SDS011;9165;45.714;11.362;2023-12-14T14:09:31;12.47;;;10.00;;
18076;SDS011;9165;45.714;11.362;2023-12-14T14:11:58;15.70;;;11.00;;
18076;SDS011;9165;45.714;11.362;2023-12-14T14:14:25;16.03;;;10.60;;
18076;SDS011;9165;45.714;11.362;2023-12-14T14:16:51;14.10;;;10.60;;
18076;SDS011;9165;45.714;11.362;2023-12-14T14:19:18;14.03;;;10.37;;
18076;SDS011;9165;45.714;11.362;2023-12-14T14:21:44;20.97;;;10.87;;
18076;SDS011;9165;45.714;11.362;2023-12-14T14:24:11;16.47;;;11.57;;
18076;SDS011;9165;45.714;11.362;2023-12-14T14:26:39;15.43;;;11.03;;
18076;SDS011;9165;45.714;11.362;2023-12-14T14:29:06;15.90;;;10.97;;
18076;SDS011;9165;45.714;11.362;2023-12-14T14:31:36;20.13;;;11.63;;
18076;SDS011;9165;45.714;11.362;2023-12-14T14:34:03;16.37;;;11.63;;
18076;SDS011;9165;45.714;11.362;2023-12-14T14:36:30;18.00;;;11.63;;
18076;SDS011;9165;45.714;11.362;2023-12-14T14:38:59;15.40;;;10.63;;
18076;SDS011;9165;45.714;11.362;2023-12-14T14:41:26;11.80;;;9.77;;
18076;SDS011;9165;45.714;11.362;2023-12-14T14:43:54;11.97;;;8.10;;
18076;SDS011;9165;45.714;11.362;2023-12-14T14:46:20;11.03;;;7.67;;
18076;SDS011;9165;45.714;11.362;2023-12-14T14:48:47;9.80;;;8.00;;
18076;SDS011;9165;45.714;11.362;2023-12-14T14:51:13;11.60;;;8.03;;
18076;SDS011;9165;45.714;11.362;2023-12-14T14:53:40;10.90;;;8.03;;
18076;SDS011;9165;45.714;11.362;2023-12-14T14:56:08;10.13;;;7.50;;